createdAt,value
2019-03-24T00:00:27.362Z,37.97
2019-03-24T00:02:59.785Z,37.77
2019-03-24T00:05:30.312Z,35.43
2019-03-24T00:08:00.843Z,35.13
2019-03-24T00:10:31.750Z,34.80
2019-03-24T00:13:03.759Z,36.53
2019-03-24T00:15:34.419Z,32.27
2019-03-24T00:18:04.956Z,33.30
2019-03-24T00:20:35.430Z,33.30
2019-03-24T00:23:05.917Z,32.10
2019-03-24T00:25:36.735Z,34.47
2019-03-24T00:28:07.309Z,32.87
2019-03-24T00:30:38.780Z,34.97
2019-03-24T00:33:09.285Z,29.70
2019-03-24T00:35:39.761Z,25.37
2019-03-24T00:38:10.610Z,23.47
2019-03-24T00:40:41.340Z,23.63
2019-03-24T00:43:11.751Z,23.50
2019-03-24T00:45:42.162Z,20.33
2019-03-24T00:48:12.641Z,23.10
2019-03-24T00:50:43.608Z,25.83
2019-03-24T00:53:14.099Z,22.60
2019-03-24T00:55:44.585Z,22.00
2019-03-24T00:58:15.446Z,23.30
2019-03-24T01:00:47.849Z,18.73
2019-03-24T01:03:18.760Z,19.37
2019-03-24T01:05:49.353Z,23.47
2019-03-24T01:08:19.848Z,18.37
2019-03-24T01:10:50.404Z,23.33
2019-03-24T01:13:21.377Z,18.80
2019-03-24T01:15:51.798Z,17.87
2019-03-24T01:18:23.082Z,19.73
2019-03-24T01:20:53.643Z,20.60
2019-03-24T01:23:24.236Z,21.53
2019-03-24T01:25:55.046Z,17.83
2019-03-24T01:28:25.644Z,17.33
2019-03-24T01:30:56.155Z,16.67
2019-03-24T01:33:26.678Z,17.23
2019-03-24T01:35:57.082Z,15.13
2019-03-24T01:38:27.547Z,19.47
2019-03-24T01:40:58.391Z,21.47
2019-03-24T01:43:29.265Z,18.17
2019-03-24T01:45:59.758Z,14.87
2019-03-24T01:48:31.494Z,20.20
2019-03-24T01:51:01.990Z,21.73
2019-03-24T01:53:32.373Z,17.50
2019-03-24T01:56:03.192Z,20.60
2019-03-24T01:58:33.594Z,17.77
2019-03-24T02:01:04.071Z,18.10
2019-03-24T02:03:34.554Z,19.27
2019-03-24T02:06:10.777Z,18.87
2019-03-24T02:08:41.273Z,16.50
2019-03-24T02:11:11.819Z,20.77
2019-03-24T02:13:42.346Z,19.40
2019-03-24T02:16:13.912Z,21.73
2019-03-24T02:18:44.487Z,16.80
2019-03-24T02:21:15.392Z,14.77
2019-03-24T02:23:45.788Z,17.43
2019-03-24T02:26:16.297Z,17.43
2019-03-24T02:28:46.708Z,20.13
2019-03-24T02:31:17.311Z,19.80
2019-03-24T02:33:47.820Z,18.90
2019-03-24T02:36:18.355Z,18.63
2019-03-24T02:38:48.767Z,17.43
2019-03-24T02:41:19.273Z,19.27
2019-03-24T02:43:49.857Z,20.50
2019-03-24T02:46:24.481Z,19.33
2019-03-24T02:48:52.638Z,20.40
2019-03-24T02:51:23.603Z,19.73
2019-03-24T02:53:54.089Z,20.80
2019-03-24T02:56:24.605Z,19.27
2019-03-24T02:58:56.182Z,22.10
2019-03-24T03:01:26.675Z,19.87
2019-03-24T03:03:57.606Z,17.73
2019-03-24T03:06:28.173Z,18.53
2019-03-24T03:08:58.731Z,18.93
2019-03-24T03:11:29.221Z,18.70
2019-03-24T03:14:00.052Z,21.47
2019-03-24T03:16:38.308Z,20.07
2019-03-24T03:19:02.872Z,19.20
2019-03-24T03:21:33.391Z,24.60
2019-03-24T03:24:03.947Z,22.73
2019-03-24T03:26:34.614Z,21.63
2019-03-24T03:29:05.164Z,19.63
2019-03-24T03:31:35.981Z,20.27
2019-03-24T03:34:07.082Z,17.53
2019-03-24T03:36:39.008Z,21.77
2019-03-24T03:39:09.615Z,24.10
2019-03-24T03:41:40.210Z,23.77
2019-03-24T03:44:10.689Z,22.50
2019-03-24T03:46:51.966Z,25.27
2019-03-24T03:49:13.440Z,24.40
2019-03-24T03:51:44.335Z,23.73
2019-03-24T03:54:15.071Z,18.30
2019-03-24T03:56:45.581Z,21.37
2019-03-24T03:59:16.400Z,24.30
2019-03-24T04:01:46.910Z,20.27
2019-03-24T04:04:17.462Z,27.43
2019-03-24T04:06:47.968Z,20.47
2019-03-24T04:09:18.455Z,25.47
2019-03-24T04:11:49.250Z,21.17
2019-03-24T04:14:19.753Z,22.10
2019-03-24T04:16:50.218Z,23.30
2019-03-24T04:19:20.667Z,30.03
2019-03-24T04:21:51.491Z,24.83
2019-03-24T04:24:22.313Z,24.87
2019-03-24T04:26:52.800Z,26.97
2019-03-24T04:29:23.322Z,28.30
2019-03-24T04:31:53.834Z,26.10
2019-03-24T04:34:24.627Z,27.77
2019-03-24T04:36:55.149Z,27.27
2019-03-24T04:39:25.626Z,28.97
2019-03-24T04:41:56.135Z,24.77
2019-03-24T04:44:26.732Z,25.97
2019-03-24T04:46:57.208Z,26.73
2019-03-24T04:49:27.725Z,24.60
2019-03-24T04:51:59.286Z,24.67
2019-03-24T04:54:29.985Z,25.40
2019-03-24T04:57:00.576Z,24.57
2019-03-24T04:59:31.117Z,31.20
2019-03-24T05:02:01.710Z,29.67
2019-03-24T05:04:32.319Z,28.13
2019-03-24T05:07:02.862Z,26.47
2019-03-24T05:09:33.362Z,31.77
2019-03-24T05:12:03.862Z,23.03
2019-03-24T05:14:34.443Z,28.17
2019-03-24T05:17:04.979Z,26.60
2019-03-24T05:19:35.425Z,32.80
2019-03-24T05:22:05.893Z,27.43
2019-03-24T05:24:36.766Z,29.33
2019-03-24T05:27:07.594Z,28.33
2019-03-24T05:29:37.947Z,27.93
2019-03-24T05:32:08.453Z,32.30
2019-03-24T05:34:39.271Z,31.83
2019-03-24T05:37:10.711Z,26.33
2019-03-24T05:39:41.566Z,37.57
2019-03-24T05:42:12.379Z,28.13
2019-03-24T05:44:43.036Z,32.40
2019-03-24T05:47:13.538Z,30.80
2019-03-24T05:49:44.058Z,29.17
2019-03-24T05:52:14.602Z,28.73
2019-03-24T05:54:45.064Z,32.33
2019-03-24T05:57:17.532Z,29.33
2019-03-24T05:59:48.014Z,33.40
2019-03-24T06:02:18.802Z,31.63
2019-03-24T06:04:49.314Z,32.23
2019-03-24T06:07:21.041Z,30.50
2019-03-24T06:09:51.535Z,29.63
2019-03-24T06:12:22.052Z,34.67
2019-03-24T06:14:52.582Z,28.03
2019-03-24T06:17:23.069Z,31.03
2019-03-24T06:19:53.587Z,32.73
2019-03-24T06:22:24.150Z,36.17
2019-03-24T06:24:54.681Z,33.20
2019-03-24T06:27:26.017Z,36.97
2019-03-24T06:29:56.507Z,41.33
2019-03-24T06:32:27.000Z,30.50
2019-03-24T06:34:57.564Z,34.57
2019-03-24T06:37:28.146Z,34.63
2019-03-24T06:39:58.963Z,30.43
2019-03-24T06:42:29.944Z,36.67
2019-03-24T06:45:01.061Z,33.67
2019-03-24T06:47:31.608Z,32.90
2019-03-24T06:50:02.577Z,34.17
2019-03-24T06:52:33.245Z,31.93
2019-03-24T06:55:04.469Z,35.00
2019-03-24T06:57:35.065Z,35.53
2019-03-24T07:00:06.191Z,35.63
2019-03-24T07:02:37.131Z,37.43
2019-03-24T07:05:09.183Z,29.93
2019-03-24T07:07:40.010Z,35.87
2019-03-24T07:10:11.136Z,36.77
2019-03-24T07:12:41.825Z,35.77
2019-03-24T07:15:14.785Z,35.17
2019-03-24T07:17:45.584Z,36.57
2019-03-24T07:20:16.142Z,35.83
2019-03-24T07:22:46.846Z,37.10
2019-03-24T07:25:17.476Z,35.17
2019-03-24T07:27:47.996Z,36.80
2019-03-24T07:30:19.970Z,37.50
2019-03-24T07:32:50.566Z,36.90
2019-03-24T07:35:22.172Z,37.33
2019-03-24T07:37:52.739Z,34.67
2019-03-24T07:40:23.756Z,39.47
2019-03-24T07:42:54.247Z,38.10
2019-03-24T07:45:24.841Z,36.83
2019-03-24T07:47:56.762Z,34.47
2019-03-24T07:50:27.600Z,35.33
2019-03-24T07:52:58.387Z,34.77
2019-03-24T07:55:28.822Z,33.57
2019-03-24T07:57:59.712Z,29.40
2019-03-24T08:00:35.157Z,32.27
2019-03-24T08:03:05.816Z,26.97
2019-03-24T08:05:36.372Z,33.10
2019-03-24T08:08:07.649Z,30.77
2019-03-24T08:10:38.159Z,31.50
2019-03-24T08:13:08.565Z,30.40
2019-03-24T08:15:39.154Z,32.23
2019-03-24T08:18:09.727Z,31.13
2019-03-24T08:20:40.218Z,31.67
2019-03-24T08:23:10.694Z,30.30
2019-03-24T08:25:41.671Z,27.70
2019-03-24T08:28:12.729Z,33.87
2019-03-24T08:30:43.228Z,36.40
2019-03-24T08:33:15.032Z,37.43
2019-03-24T08:35:45.542Z,32.27
2019-03-24T08:38:16.935Z,34.23
2019-03-24T08:40:47.435Z,33.60
2019-03-24T08:43:18.015Z,29.60
2019-03-24T08:45:48.788Z,27.77
2019-03-24T08:48:19.319Z,33.60
2019-03-24T08:50:49.745Z,34.17
2019-03-24T08:53:20.472Z,35.17
2019-03-24T08:55:50.906Z,37.67
2019-03-24T08:58:21.922Z,33.60
2019-03-24T09:00:52.880Z,29.63
2019-03-24T09:03:23.708Z,34.63
2019-03-24T09:05:54.573Z,35.70
2019-03-24T09:08:25.065Z,32.87
2019-03-24T09:10:55.594Z,29.50
2019-03-24T09:13:26.631Z,32.93
2019-03-24T09:15:57.399Z,35.07
2019-03-24T09:18:27.894Z,31.63
2019-03-24T09:20:58.446Z,31.87
2019-03-24T09:23:29.082Z,32.40
2019-03-24T09:25:59.974Z,33.93
2019-03-24T09:28:30.489Z,34.60
2019-03-24T09:31:00.975Z,31.03
2019-03-24T09:33:32.915Z,30.23
2019-03-24T09:36:03.494Z,30.60
2019-03-24T09:38:34.000Z,32.70
2019-03-24T09:41:05.455Z,29.63
2019-03-24T09:43:36.302Z,34.73
2019-03-24T09:46:07.114Z,27.67
2019-03-24T09:48:37.926Z,26.40
2019-03-24T09:51:09.399Z,30.77
2019-03-24T09:53:39.833Z,31.03
2019-03-24T09:56:10.381Z,27.30
2019-03-24T09:58:41.848Z,23.57
2019-03-24T10:01:12.351Z,28.70
2019-03-24T10:03:42.751Z,23.77
2019-03-24T10:06:13.376Z,22.80
2019-03-24T10:08:47.200Z,24.40
2019-03-24T10:11:17.625Z,23.53
2019-03-24T10:13:48.281Z,25.27
2019-03-24T10:16:18.720Z,17.53
2019-03-24T10:18:49.117Z,18.23
2019-03-24T10:21:19.713Z,22.97
2019-03-24T10:23:50.782Z,18.07
2019-03-24T10:26:21.476Z,22.97
2019-03-24T10:28:52.121Z,18.20
2019-03-24T10:31:22.862Z,19.87
2019-03-24T10:33:53.287Z,20.23
2019-03-24T10:36:24.049Z,20.13
2019-03-24T10:38:54.409Z,20.53
2019-03-24T10:41:25.176Z,20.23
2019-03-24T10:43:55.835Z,19.13
2019-03-24T10:46:26.327Z,24.77
2019-03-24T10:48:57.046Z,17.17
2019-03-24T10:51:27.504Z,23.90
2019-03-24T10:53:58.049Z,19.93
2019-03-24T10:56:28.782Z,15.33
2019-03-24T10:58:59.250Z,23.63
2019-03-24T11:01:29.927Z,21.73
2019-03-24T11:04:00.283Z,20.37
2019-03-24T11:06:31.147Z,19.33
2019-03-24T11:09:02.069Z,22.70
2019-03-24T11:11:35.535Z,20.37
2019-03-24T11:14:06.059Z,18.63
2019-03-24T11:16:36.944Z,21.40
2019-03-24T11:19:07.413Z,23.50
2019-03-24T11:21:37.916Z,19.10
2019-03-24T11:24:12.288Z,18.07
2019-03-24T11:26:42.959Z,21.43
2019-03-24T11:29:13.408Z,23.00
2019-03-24T11:31:44.876Z,20.20
2019-03-24T11:34:16.779Z,15.80
2019-03-24T11:36:48.016Z,18.40
2019-03-24T11:39:19.363Z,14.50
2019-03-24T11:41:49.971Z,17.67
2019-03-24T11:44:20.642Z,15.67
2019-03-24T11:46:51.162Z,18.37
2019-03-24T11:49:21.669Z,19.13
2019-03-24T11:51:52.185Z,18.60
2019-03-24T11:54:22.694Z,17.53
2019-03-24T11:56:53.534Z,14.17
2019-03-24T11:59:24.060Z,12.50
2019-03-24T12:01:54.653Z,13.50
2019-03-24T12:04:25.184Z,15.57
2019-03-24T12:06:55.693Z,13.13
2019-03-24T12:09:26.180Z,12.33
2019-03-24T12:11:57.058Z,13.93
2019-03-24T12:14:27.567Z,8.93
2019-03-24T12:16:59.162Z,10.17
2019-03-24T12:19:29.709Z,12.27
2019-03-24T12:22:01.671Z,9.87
2019-03-24T12:24:32.527Z,13.90
2019-03-24T12:27:06.110Z,13.90
2019-03-24T12:29:36.703Z,13.07
2019-03-24T12:32:07.221Z,13.57
2019-03-24T12:34:38.115Z,14.00
2019-03-24T12:37:08.600Z,14.83
2019-03-24T12:39:39.016Z,16.97
2019-03-24T12:42:10.611Z,20.97
2019-03-24T12:44:41.549Z,17.03
2019-03-24T12:47:12.160Z,13.23
2019-03-24T12:49:42.643Z,14.00
2019-03-24T12:52:13.342Z,13.23
2019-03-24T12:54:43.972Z,20.27
2019-03-24T12:57:14.572Z,14.93
2019-03-24T12:59:45.465Z,19.90
2019-03-24T13:02:15.914Z,13.30
2019-03-24T13:04:46.594Z,16.33
2019-03-24T13:07:17.097Z,8.13
2019-03-24T13:09:47.879Z,9.13
2019-03-24T13:12:18.414Z,8.90
2019-03-24T13:14:49.503Z,7.50
2019-03-24T13:17:20.804Z,11.37
2019-03-24T13:19:51.532Z,7.20
2019-03-24T13:22:21.907Z,8.00
2019-03-24T13:24:52.697Z,14.13
2019-03-24T13:27:23.258Z,8.60
2019-03-24T13:29:54.245Z,9.80
2019-03-24T13:32:25.617Z,10.90
2019-03-24T13:34:56.117Z,10.57
2019-03-24T13:37:27.384Z,10.13
2019-03-24T13:39:58.456Z,9.83
2019-03-24T13:42:29.103Z,9.67
2019-03-24T13:44:59.540Z,12.17
2019-03-24T13:47:30.125Z,8.80
2019-03-24T13:50:00.729Z,10.70
2019-03-24T13:52:31.277Z,8.93
2019-03-24T13:55:01.972Z,6.53
2019-03-24T13:57:32.532Z,7.40
2019-03-24T14:00:02.988Z,8.23
2019-03-24T14:02:35.183Z,11.43
2019-03-24T14:05:06.078Z,7.10
2019-03-24T14:07:36.665Z,13.70
2019-03-24T14:10:07.623Z,13.17
2019-03-24T14:12:39.402Z,4.93
2019-03-24T14:15:10.354Z,7.10
2019-03-24T14:17:40.890Z,9.43
2019-03-24T14:20:12.004Z,8.07
2019-03-24T14:22:42.553Z,6.93
2019-03-24T14:25:13.470Z,6.87
2019-03-24T14:27:43.938Z,4.80
2019-03-24T14:30:14.762Z,10.73
2019-03-24T14:32:45.260Z,9.17
2019-03-24T14:35:16.608Z,7.83
2019-03-24T14:37:47.580Z,9.30
2019-03-24T14:40:18.229Z,5.07
2019-03-24T14:42:48.681Z,8.20
2019-03-24T14:45:19.094Z,5.17
2019-03-24T14:47:49.668Z,8.93
2019-03-24T14:50:20.193Z,4.80
2019-03-24T14:52:50.642Z,5.30
2019-03-24T14:55:21.168Z,6.53
2019-03-24T14:57:51.919Z,7.90
2019-03-24T15:00:31.030Z,6.93
2019-03-24T15:03:01.573Z,6.77
2019-03-24T15:05:32.090Z,6.67
2019-03-24T15:08:03.315Z,7.93
2019-03-24T15:10:34.817Z,4.53
2019-03-24T15:13:06.356Z,4.57
2019-03-24T15:15:37.359Z,4.50
2019-03-24T15:18:07.894Z,6.70
2019-03-24T15:20:38.380Z,5.53
2019-03-24T15:23:08.895Z,5.63
2019-03-24T15:25:39.387Z,3.90
2019-03-24T15:28:09.964Z,5.13
2019-03-24T15:30:40.445Z,5.83
2019-03-24T15:33:10.942Z,3.67
2019-03-24T15:35:41.842Z,4.67
2019-03-24T15:38:15.083Z,3.77
2019-03-24T15:40:49.440Z,6.73
2019-03-24T15:43:19.467Z,6.40
2019-03-24T15:45:55.924Z,5.17
2019-03-24T15:48:26.412Z,5.23
2019-03-24T15:51:00.395Z,7.70
2019-03-24T15:53:31.022Z,5.40
2019-03-24T15:56:01.591Z,3.40
2019-03-24T15:58:32.088Z,5.37
2019-03-24T16:01:02.908Z,3.30
2019-03-24T16:03:33.857Z,5.17
2019-03-24T16:06:05.405Z,5.77
2019-03-24T16:08:36.030Z,4.90
2019-03-24T16:11:06.607Z,3.90
2019-03-24T16:13:37.251Z,7.53
2019-03-24T16:16:07.734Z,5.57
2019-03-24T16:18:38.323Z,4.50
2019-03-24T16:21:09.128Z,6.33
2019-03-24T16:23:40.073Z,7.73
2019-03-24T16:26:11.530Z,5.13
2019-03-24T16:28:42.370Z,7.43
2019-03-24T16:31:12.924Z,7.23
2019-03-24T16:33:43.456Z,3.80
2019-03-24T16:36:14.046Z,5.63
2019-03-24T16:38:49.026Z,5.27
2019-03-24T16:41:17.278Z,6.67
2019-03-24T16:43:47.843Z,4.53
2019-03-24T16:46:19.452Z,5.87
2019-03-24T16:48:50.200Z,6.60
2019-03-24T16:51:21.007Z,3.17
2019-03-24T16:53:51.608Z,6.87
2019-03-24T16:56:22.053Z,3.40
2019-03-24T16:58:53.454Z,4.23
2019-03-24T17:01:23.990Z,4.23
2019-03-24T17:03:55.801Z,3.87
2019-03-24T17:06:27.499Z,3.40
2019-03-24T17:08:58.498Z,6.00
2019-03-24T17:11:28.981Z,3.37
2019-03-24T17:13:59.489Z,4.00
2019-03-24T17:16:29.975Z,3.00
2019-03-24T17:19:00.708Z,6.50
2019-03-24T17:21:32.473Z,4.07
2019-03-24T17:24:02.915Z,4.67
2019-03-24T17:26:33.388Z,5.73
2019-03-24T17:29:04.313Z,7.30
2019-03-24T17:31:35.095Z,7.10
2019-03-24T17:34:05.715Z,5.83
2019-03-24T17:36:36.161Z,3.53
2019-03-24T17:39:08.376Z,5.90
2019-03-24T17:41:39.148Z,5.97
2019-03-24T17:44:09.767Z,4.20
2019-03-24T17:46:40.281Z,6.73
2019-03-24T17:49:10.799Z,4.00
2019-03-24T17:51:41.464Z,3.73
2019-03-24T17:54:12.125Z,8.37
2019-03-24T17:56:43.050Z,6.80
2019-03-24T17:59:14.555Z,5.87
2019-03-24T18:01:45.157Z,6.43
2019-03-24T18:04:24.838Z,6.27
2019-03-24T18:06:51.365Z,8.83
2019-03-24T18:09:21.862Z,5.87
2019-03-24T18:11:53.937Z,7.37
2019-03-24T18:14:24.583Z,4.77
2019-03-24T18:16:55.115Z,5.13
2019-03-24T18:19:25.603Z,6.47
2019-03-24T18:21:55.990Z,7.30
2019-03-24T18:24:26.494Z,7.57
2019-03-24T18:26:56.976Z,9.83
2019-03-24T18:29:27.582Z,6.90
2019-03-24T18:31:57.983Z,8.90
2019-03-24T18:34:28.474Z,8.30
2019-03-24T18:36:59.393Z,7.17
2019-03-24T18:39:29.824Z,6.80
2019-03-24T18:42:00.413Z,9.93
2019-03-24T18:44:31.311Z,5.13
2019-03-24T18:47:01.955Z,9.70
2019-03-24T18:49:32.390Z,6.60
2019-03-24T18:52:02.926Z,9.03
2019-03-24T18:54:34.594Z,7.27
2019-03-24T18:57:05.226Z,5.33
2019-03-24T18:59:35.767Z,8.23
2019-03-24T19:02:06.552Z,6.50
2019-03-24T19:04:37.022Z,7.20
2019-03-24T19:07:07.488Z,7.13
2019-03-24T19:09:38.025Z,6.83
2019-03-24T19:12:08.519Z,8.53
2019-03-24T19:14:40.185Z,8.13
2019-03-24T19:17:10.793Z,6.53
2019-03-24T19:19:43.637Z,6.20
2019-03-24T19:22:14.224Z,6.80
2019-03-24T19:24:45.067Z,4.63
2019-03-24T19:27:15.771Z,7.57
2019-03-24T19:29:46.402Z,8.43
2019-03-24T19:32:17.059Z,11.00
2019-03-24T19:34:48.964Z,7.40
2019-03-24T19:37:20.074Z,7.37
2019-03-24T19:39:50.960Z,9.57
2019-03-24T19:42:21.410Z,21.43
2019-03-24T19:44:52.030Z,12.43
2019-03-24T19:47:22.631Z,10.83
2019-03-24T19:49:53.430Z,7.77
2019-03-24T19:52:23.942Z,10.37
2019-03-24T19:54:54.453Z,20.90
2019-03-24T19:57:24.932Z,8.23
2019-03-24T19:59:55.369Z,5.17
2019-03-24T20:02:25.789Z,12.10
2019-03-24T20:04:56.252Z,9.10
2019-03-24T20:07:26.744Z,13.10
2019-03-24T20:09:57.262Z,5.83
2019-03-24T20:12:27.832Z,9.00
2019-03-24T20:14:58.349Z,7.17
2019-03-24T20:17:28.895Z,9.23
2019-03-24T20:19:59.677Z,11.03
2019-03-24T20:22:30.171Z,8.23
2019-03-24T20:25:01.415Z,9.13
2019-03-24T20:27:31.834Z,8.90
2019-03-24T20:30:02.387Z,9.33
2019-03-24T20:32:34.430Z,8.07
2019-03-24T20:35:06.010Z,6.10
2019-03-24T20:37:36.735Z,11.67
2019-03-24T20:40:07.927Z,7.10
2019-03-24T20:42:38.657Z,9.63
2019-03-24T20:45:13.066Z,8.97
2019-03-24T20:47:43.659Z,8.33
2019-03-24T20:50:14.502Z,8.47
2019-03-24T20:52:45.031Z,10.57
2019-03-24T20:55:15.630Z,7.23
2019-03-24T20:57:46.210Z,10.00
2019-03-24T21:00:18.725Z,8.60
2019-03-24T21:02:49.396Z,8.33
2019-03-24T21:05:20.142Z,6.33
2019-03-24T21:07:51.096Z,9.37
2019-03-24T21:10:24.028Z,9.73
2019-03-24T21:12:53.757Z,12.57
2019-03-24T21:15:24.353Z,12.73
2019-03-24T21:17:55.465Z,10.30
2019-03-24T21:20:25.869Z,7.43
2019-03-24T21:22:57.743Z,10.03
2019-03-24T21:25:28.281Z,12.07
2019-03-24T21:27:59.316Z,8.27
2019-03-24T21:30:38.212Z,19.23
2019-03-24T21:33:08.803Z,10.07
2019-03-24T21:35:39.754Z,10.37
2019-03-24T21:38:10.635Z,14.30
2019-03-24T21:40:41.479Z,7.63
2019-03-24T21:43:12.249Z,11.53
2019-03-24T21:45:42.756Z,10.43
2019-03-24T21:48:13.209Z,11.80
2019-03-24T21:50:43.735Z,10.67
2019-03-24T21:53:14.127Z,10.90
2019-03-24T21:55:44.920Z,16.17
2019-03-24T21:58:15.431Z,13.10
2019-03-24T22:00:46.267Z,15.83
2019-03-24T22:03:16.691Z,9.83
2019-03-24T22:05:47.229Z,13.37
2019-03-24T22:08:17.726Z,11.40
2019-03-24T22:10:48.256Z,9.07
2019-03-24T22:13:18.851Z,9.33
2019-03-24T22:15:49.628Z,9.47
2019-03-24T22:18:19.950Z,11.50
2019-03-24T22:20:50.487Z,12.17
2019-03-24T22:23:20.997Z,10.77
2019-03-24T22:25:51.581Z,9.27
2019-03-24T22:28:22.071Z,18.43
2019-03-24T22:30:52.606Z,8.97
2019-03-24T22:33:23.143Z,12.50
2019-03-24T22:35:53.673Z,14.90
2019-03-24T22:38:24.156Z,13.13
2019-03-24T22:40:55.435Z,7.20
2019-03-24T22:43:26.164Z,14.90
2019-03-24T22:45:56.733Z,10.80
2019-03-24T22:48:27.547Z,12.20
2019-03-24T22:50:58.093Z,24.33
2019-03-24T22:53:28.498Z,9.20
2019-03-24T22:55:59.052Z,9.03
2019-03-24T22:58:29.811Z,11.93
2019-03-24T23:01:02.736Z,14.13
2019-03-24T23:03:34.922Z,10.13
2019-03-24T23:06:07.067Z,14.20
2019-03-24T23:08:37.512Z,11.30
2019-03-24T23:11:08.102Z,10.87
2019-03-24T23:13:38.593Z,10.60
2019-03-24T23:16:09.144Z,12.70
2019-03-24T23:18:39.725Z,9.37
2019-03-24T23:21:11.949Z,10.00
2019-03-24T23:23:42.442Z,10.87
2019-03-24T23:26:13.731Z,8.50
2019-03-24T23:28:44.762Z,7.87
2019-03-24T23:31:15.236Z,11.50
2019-03-24T23:33:46.222Z,14.37
2019-03-24T23:36:16.680Z,10.23
2019-03-24T23:38:47.150Z,12.50
2019-03-24T23:41:17.775Z,10.63
2019-03-24T23:43:48.362Z,11.60
2019-03-24T23:46:19.174Z,14.53
2019-03-24T23:48:49.677Z,11.80
2019-03-24T23:51:20.178Z,12.93
2019-03-24T23:53:50.613Z,8.37
2019-03-24T23:56:21.190Z,12.27
2019-03-24T23:58:52.155Z,10.27
